Time;durP1;ratioP1;P1;durP2;ratioP2;P2;SDS_P1;SDS_P2;PMS_P1;PMS_P2;Temp;Humidity;BMP_temperature;BMP_pressure;BME280_temperature;BME280_humidity;BME280_pressure;Samples;Min_cycle;Max_cycle;Signal;HPM_P1;HPM_P2
2020/12/26 00:00:17;;;;;;;4.90;2.83;;;;;;;;;;5020600;28;20340;-60
2020/12/26 00:02:42;;;;;;;4.20;2.33;;;;;;;;;;5021075;28;20213;-61
2020/12/26 00:05:07;;;;;;;3.90;2.60;;;;;;;;;;5020849;28;20644;-61
2020/12/26 00:07:33;;;;;;;5.17;2.77;;;;;;;;;;5020395;28;21008;-61
2020/12/26 00:09:58;;;;;;;9.43;2.70;;;;;;;;;;5020668;28;20215;-61
2020/12/26 00:12:23;;;;;;;7.23;2.63;;;;;;;;;;5020262;28;20228;-62
2020/12/26 00:14:48;;;;;;;3.50;2.10;;;;;;;;;;5036853;28;20264;-62
2020/12/26 00:17:15;;;;;;;4.40;2.60;;;;;;;;;;5039646;28;20237;-61
2020/12/26 00:19:40;;;;;;;3.10;2.30;;;;;;;;;;5039969;28;20220;-61
2020/12/26 00:22:05;;;;;;;4.73;2.90;;;;;;;;;;5039539;28;20863;-61
2020/12/26 00:24:30;;;;;;;4.40;3.03;;;;;;;;;;5039263;28;20653;-62
2020/12/26 00:26:57;;;;;;;3.93;2.57;;;;;;;;;;5039983;28;20215;-62
2020/12/26 00:29:22;;;;;;;2.93;2.50;;;;;;;;;;5039684;28;20276;-62
2020/12/26 00:31:47;;;;;;;5.30;2.20;;;;;;;;;;5040084;28;20465;-62
2020/12/26 00:34:13;;;;;;;3.83;2.67;;;;;;;;;;5040285;28;20230;-62
2020/12/26 00:36:38;;;;;;;5.40;4.10;;;;;;;;;;5039785;28;20215;-61
2020/12/26 00:39:06;;;;;;;2.83;2.13;;;;;;;;;;5038214;28;20253;-62
2020/12/26 00:41:31;;;;;;;4.37;2.40;;;;;;;;;;5038531;28;20305;-61
2020/12/26 00:43:56;;;;;;;5.30;3.17;;;;;;;;;;5040446;28;20472;-61
2020/12/26 00:46:22;;;;;;;5.40;3.20;;;;;;;;;;5039949;28;20218;-61
2020/12/26 00:48:49;;;;;;;4.00;2.60;;;;;;;;;;5038383;28;20228;-62
2020/12/26 00:51:15;;;;;;;4.60;2.50;;;;;;;;;;5039176;28;20482;-61
2020/12/26 00:53:40;;;;;;;7.43;2.93;;;;;;;;;;5039884;28;20522;-61
2020/12/26 00:56:06;;;;;;;2.80;2.60;;;;;;;;;;5040097;28;20462;-62
2020/12/26 00:58:31;;;;;;;3.33;2.30;;;;;;;;;;5039733;28;20542;-62
2020/12/26 01:00:56;;;;;;;4.93;3.70;;;;;;;;;;5032698;28;20219;-62
2020/12/26 01:03:21;;;;;;;3.77;2.33;;;;;;;;;;5023212;28;20232;-62
2020/12/26 01:05:47;;;;;;;5.13;2.50;;;;;;;;;;5039735;28;20214;-62
2020/12/26 01:08:12;;;;;;;4.50;2.63;;;;;;;;;;5030877;28;20247;-62
2020/12/26 01:10:37;;;;;;;12.07;4.67;;;;;;;;;;5019104;28;20229;-62
2020/12/26 01:13:03;;;;;;;7.70;2.63;;;;;;;;;;5019431;28;20245;-61
2020/12/26 01:15:28;;;;;;;2.53;2.10;;;;;;;;;;5018157;28;20227;-61
2020/12/26 01:17:53;;;;;;;2.90;2.57;;;;;;;;;;5037617;28;20282;-62
2020/12/26 01:20:18;;;;;;;3.40;2.43;;;;;;;;;;5038533;28;20249;-62
2020/12/26 01:22:43;;;;;;;3.67;2.37;;;;;;;;;;5039223;28;20601;-62
2020/12/26 01:25:11;;;;;;;2.80;2.40;;;;;;;;;;5040188;28;20246;-62
2020/12/26 01:27:36;;;;;;;3.17;1.97;;;;;;;;;;5039071;28;20237;-62
2020/12/26 01:30:03;;;;;;;6.10;2.67;;;;;;;;;;5039135;28;20508;-62
2020/12/26 01:32:28;;;;;;;4.87;2.43;;;;;;;;;;5038926;28;20223;-62
2020/12/26 01:35:03;;;;;;;2.30;2.10;;;;;;;;;;5021519;28;20959;-61
2020/12/26 01:37:28;;;;;;;3.37;2.80;;;;;;;;;;5020043;28;20662;-62
2020/12/26 01:39:53;;;;;;;5.13;2.93;;;;;;;;;;5020223;28;20478;-61
2020/12/26 01:42:19;;;;;;;6.00;2.83;;;;;;;;;;5019120;28;20232;-61
2020/12/26 01:44:44;;;;;;;3.10;2.13;;;;;;;;;;5020609;28;20223;-61
2020/12/26 01:47:09;;;;;;;3.63;2.13;;;;;;;;;;5020448;28;20215;-61
2020/12/26 01:49:35;;;;;;;3.77;2.77;;;;;;;;;;5019368;28;20227;-61
2020/12/26 01:52:01;;;;;;;5.27;2.50;;;;;;;;;;5020447;28;20215;-62
2020/12/26 01:54:26;;;;;;;2.80;2.57;;;;;;;;;;5019495;28;20246;-62
2020/12/26 01:56:51;;;;;;;4.47;3.13;;;;;;;;;;5019759;28;20490;-61
2020/12/26 01:59:16;;;;;;;4.63;2.97;;;;;;;;;;5034341;28;20216;-62
2020/12/26 02:01:43;;;;;;;8.50;2.83;;;;;;;;;;5019390;28;20222;-62
2020/12/26 02:04:12;;;;;;;11.10;3.07;;;;;;;;;;5019975;28;20647;-62
2020/12/26 02:06:56;;;;;;;6.90;3.57;;;;;;;;;;5018918;28;20845;-62
2020/12/26 02:09:22;;;;;;;6.97;3.23;;;;;;;;;;5019590;28;20515;-62
2020/12/26 02:11:47;;;;;;;4.50;2.40;;;;;;;;;;5018644;28;20457;-62
2020/12/26 02:14:13;;;;;;;4.20;2.67;;;;;;;;;;5019034;28;20221;-62
2020/12/26 02:16:51;;;;;;;4.30;3.40;;;;;;;;;;5018667;28;20255;-62
2020/12/26 02:19:22;;;;;;;5.87;2.67;;;;;;;;;;5018523;28;20236;-62
2020/12/26 02:21:48;;;;;;;3.10;2.40;;;;;;;;;;5018744;28;20464;-62
2020/12/26 02:24:13;;;;;;;6.50;2.70;;;;;;;;;;5018080;28;20465;-62
2020/12/26 02:26:39;;;;;;;3.30;2.50;;;;;;;;;;5017830;28;20907;-62
2020/12/26 02:29:05;;;;;;;4.27;2.87;;;;;;;;;;5018670;28;20642;-62
2020/12/26 02:31:30;;;;;;;4.90;2.80;;;;;;;;;;5018380;28;20226;-61
2020/12/26 02:33:55;;;;;;;4.93;2.77;;;;;;;;;;5018157;28;20555;-62
2020/12/26 02:36:21;;;;;;;2.90;2.53;;;;;;;;;;5016947;28;20567;-62
2020/12/26 02:38:46;;;;;;;4.07;3.03;;;;;;;;;;5017631;28;20322;-61
2020/12/26 02:41:11;;;;;;;7.03;3.00;;;;;;;;;;5018077;28;20222;-61
2020/12/26 02:43:37;;;;;;;4.37;2.60;;;;;;;;;;5018038;28;20549;-61
2020/12/26 02:46:03;;;;;;;3.97;2.70;;;;;;;;;;5017909;28;20720;-61
2020/12/26 02:48:28;;;;;;;5.43;3.30;;;;;;;;;;5018246;28;20222;-62
2020/12/26 02:50:55;;;;;;;6.03;3.50;;;;;;;;;;5016824;28;20466;-62
2020/12/26 02:53:20;;;;;;;3.60;2.77;;;;;;;;;;5018126;28;20310;-61
2020/12/26 02:55:45;;;;;;;4.80;3.03;;;;;;;;;;5021963;28;20949;-62
2020/12/26 02:58:11;;;;;;;6.43;2.60;;;;;;;;;;5021710;28;20226;-62
2020/12/26 03:00:36;;;;;;;6.50;2.00;;;;;;;;;;5021895;28;20234;-62
2020/12/26 03:03:02;;;;;;;8.50;4.20;;;;;;;;;;5021778;28;20223;-62
2020/12/26 03:05:28;;;;;;;2.97;2.27;;;;;;;;;;5021135;28;20245;-62
2020/12/26 03:07:53;;;;;;;2.30;2.10;;;;;;;;;;5021662;28;20498;-62
2020/12/26 03:10:19;;;;;;;5.63;2.43;;;;;;;;;;5026960;28;20218;-62
2020/12/26 03:12:44;;;;;;;3.20;2.27;;;;;;;;;;5031809;28;20206;-62
2020/12/26 03:15:10;;;;;;;7.00;2.63;;;;;;;;;;5028746;28;20489;-62
2020/12/26 03:17:35;;;;;;;3.27;2.20;;;;;;;;;;5020452;28;20231;-62
2020/12/26 03:20:00;;;;;;;2.23;2.00;;;;;;;;;;5037021;28;20227;-62
2020/12/26 03:22:29;;;;;;;3.80;2.37;;;;;;;;;;5023133;28;20224;-62
2020/12/26 03:24:55;;;;;;;3.03;2.20;;;;;;;;;;5040863;28;20574;-62
2020/12/26 03:27:21;;;;;;;2.70;2.20;;;;;;;;;;5033866;28;20469;-62
2020/12/26 03:29:46;;;;;;;3.40;2.03;;;;;;;;;;5021005;28;20460;-62
2020/12/26 03:32:11;;;;;;;5.03;2.10;;;;;;;;;;5021521;28;20461;-62
2020/12/26 03:34:37;;;;;;;4.50;2.27;;;;;;;;;;5021012;28;20216;-62
2020/12/26 03:37:03;;;;;;;6.57;2.40;;;;;;;;;;5021531;28;20221;-62
2020/12/26 03:39:28;;;;;;;5.67;2.37;;;;;;;;;;5020755;28;20682;-62
2020/12/26 03:41:54;;;;;;;3.50;2.10;;;;;;;;;;5021100;28;20464;-62
2020/12/26 03:44:20;;;;;;;7.13;2.70;;;;;;;;;;5027377;28;20724;-62
2020/12/26 03:46:45;;;;;;;4.10;1.80;;;;;;;;;;5039595;28;20446;-62
2020/12/26 03:49:10;;;;;;;4.00;2.00;;;;;;;;;;5041649;28;20534;-61
2020/12/26 03:51:36;;;;;;;3.00;1.93;;;;;;;;;;5041391;28;20293;-62
2020/12/26 03:54:01;;;;;;;1.80;1.40;;;;;;;;;;5040306;28;20224;-62
2020/12/26 03:56:26;;;;;;;3.00;2.13;;;;;;;;;;5041007;28;20218;-62
2020/12/26 03:58:52;;;;;;;2.70;2.27;;;;;;;;;;5040960;28;20248;-62
2020/12/26 04:01:17;;;;;;;2.57;1.60;;;;;;;;;;5041289;28;20276;-62
2020/12/26 04:03:42;;;;;;;1.93;1.40;;;;;;;;;;5040080;28;20229;-61
2020/12/26 04:06:07;;;;;;;3.00;1.77;;;;;;;;;;5039995;28;20226;-61
2020/12/26 04:08:33;;;;;;;2.53;1.77;;;;;;;;;;5040898;28;20275;-61
2020/12/26 04:10:58;;;;;;;4.27;1.70;;;;;;;;;;5041346;28;20249;-61
2020/12/26 04:13:23;;;;;;;4.87;1.73;;;;;;;;;;5041118;28;20219;-61
2020/12/26 04:15:48;;;;;;;4.67;1.90;;;;;;;;;;5040618;28;20239;-61
2020/12/26 04:18:14;;;;;;;5.00;2.03;;;;;;;;;;5036717;28;20691;-61
2020/12/26 04:20:39;;;;;;;3.70;1.70;;;;;;;;;;5020841;28;20228;-62
2020/12/26 04:23:04;;;;;;;3.30;2.10;;;;;;;;;;5021711;28;20235;-61
2020/12/26 04:25:30;;;;;;;2.20;1.47;;;;;;;;;;5022071;28;20220;-61
2020/12/26 04:27:55;;;;;;;2.80;1.73;;;;;;;;;;5021966;28;20212;-61
2020/12/26 04:30:21;;;;;;;5.60;2.20;;;;;;;;;;5022369;28;20299;-62
2020/12/26 04:32:46;;;;;;;3.53;1.53;;;;;;;;;;5021802;28;20220;-61
2020/12/26 04:35:11;;;;;;;2.33;1.53;;;;;;;;;;5022509;28;20277;-61
2020/12/26 04:37:36;;;;;;;2.63;1.70;;;;;;;;;;5021455;28;20652;-61
2020/12/26 04:40:02;;;;;;;2.90;1.50;;;;;;;;;;5022169;28;20242;-61
2020/12/26 04:42:27;;;;;;;2.60;1.40;;;;;;;;;;5021957;28;20246;-61
2020/12/26 04:44:53;;;;;;;2.50;1.33;;;;;;;;;;5021532;28;20226;-61
2020/12/26 04:47:24;;;;;;;4.00;1.87;;;;;;;;;;5021993;28;20215;-61
2020/12/26 04:49:50;;;;;;;3.20;1.90;;;;;;;;;;5037569;28;20222;-61
2020/12/26 04:52:16;;;;;;;4.33;1.63;;;;;;;;;;5021346;28;20468;-61
2020/12/26 04:54:43;;;;;;;1.30;1.20;;;;;;;;;;5036960;28;20462;-61
2020/12/26 04:57:09;;;;;;;2.07;1.77;;;;;;;;;;5022627;28;20456;-61
2020/12/26 04:59:34;;;;;;;3.20;1.60;;;;;;;;;;5022219;28;20466;-61
2020/12/26 05:02:00;;;;;;;2.43;1.97;;;;;;;;;;5021674;28;20485;-60
2020/12/26 05:04:25;;;;;;;3.67;1.70;;;;;;;;;;5021650;28;20217;-60
2020/12/26 05:06:52;;;;;;;5.00;2.03;;;;;;;;;;5020172;28;20454;-60
2020/12/26 05:09:18;;;;;;;2.70;1.50;;;;;;;;;;5021236;28;20211;-60
2020/12/26 05:11:56;;;;;;;2.20;1.50;;;;;;;;;;5021353;28;20511;-61
2020/12/26 05:14:24;;;;;;;2.67;1.73;;;;;;;;;;5020743;28;20532;-61
2020/12/26 05:16:50;;;;;;;8.97;2.00;;;;;;;;;;5021130;28;20482;-61
2020/12/26 05:19:15;;;;;;;4.50;2.20;;;;;;;;;;5032839;28;20463;-61
2020/12/26 05:21:43;;;;;;;4.73;1.83;;;;;;;;;;5039994;28;20232;-61
2020/12/26 05:24:09;;;;;;;3.60;1.70;;;;;;;;;;5039602;28;20249;-61
2020/12/26 05:26:42;;;;;;;4.73;2.10;;;;;;;;;;5039408;28;20466;-61
2020/12/26 05:29:08;;;;;;;1.60;1.40;;;;;;;;;;5040379;28;20458;-61
2020/12/26 05:31:47;;;;;;;2.87;2.10;;;;;;;;;;5039061;28;20527;-61
2020/12/26 05:34:13;;;;;;;2.37;1.70;;;;;;;;;;5039738;28;20446;-61
2020/12/26 05:36:39;;;;;;;3.63;1.80;;;;;;;;;;5039606;28;20999;-61
2020/12/26 05:39:05;;;;;;;2.30;1.93;;;;;;;;;;5040012;28;20469;-61
2020/12/26 05:41:30;;;;;;;3.90;1.93;;;;;;;;;;5039341;28;20231;-61
2020/12/26 05:43:56;;;;;;;3.70;1.80;;;;;;;;;;5039899;28;20539;-61
2020/12/26 05:46:21;;;;;;;3.53;1.60;;;;;;;;;;5040213;28;20217;-61
2020/12/26 05:48:47;;;;;;;6.07;1.83;;;;;;;;;;5039233;28;20466;-62
2020/12/26 05:51:25;;;;;;;4.60;1.60;;;;;;;;;;5039605;28;20236;-61
2020/12/26 05:53:54;;;;;;;2.70;1.67;;;;;;;;;;5039230;28;20551;-61
2020/12/26 05:56:20;;;;;;;6.10;1.77;;;;;;;;;;5039238;28;20448;-62
2020/12/26 05:58:45;;;;;;;2.43;1.83;;;;;;;;;;5038726;28;20992;-61
2020/12/26 06:01:10;;;;;;;3.80;1.70;;;;;;;;;;5039222;28;20226;-61
2020/12/26 06:03:36;;;;;;;8.50;2.03;;;;;;;;;;5038211;28;20307;-61
2020/12/26 06:06:04;;;;;;;1.53;1.43;;;;;;;;;;5037893;28;20228;-61
2020/12/26 06:08:31;;;;;;;3.03;2.00;;;;;;;;;;5038897;28;20227;-61
2020/12/26 06:10:58;;;;;;;10.10;2.23;;;;;;;;;;5038753;28;21005;-60
2020/12/26 06:13:25;;;;;;;2.87;1.83;;;;;;;;;;5038725;28;20489;-61
2020/12/26 06:15:56;;;;;;;3.50;2.30;;;;;;;;;;5037995;28;20465;-61
2020/12/26 06:18:22;;;;;;;3.73;2.60;;;;;;;;;;5033177;28;20474;-60
2020/12/26 06:20:49;;;;;;;5.13;2.93;;;;;;;;;;5018694;28;20980;-61
2020/12/26 06:23:24;;;;;;;4.10;2.80;;;;;;;;;;5018425;28;20455;-60
2020/12/26 06:25:51;;;;;;;7.80;4.00;;;;;;;;;;5017824;28;20747;-61
2020/12/26 06:28:25;;;;;;;4.17;3.33;;;;;;;;;;5019782;28;20463;-61
2020/12/26 06:30:52;;;;;;;5.73;3.90;;;;;;;;;;5022624;28;20590;-61
2020/12/26 06:33:17;;;;;;;7.17;3.90;;;;;;;;;;5038493;28;20473;-61
2020/12/26 06:35:43;;;;;;;6.17;4.37;;;;;;;;;;5021713;28;20469;-60
2020/12/26 06:38:11;;;;;;;4.57;3.90;;;;;;;;;;5023021;28;20311;-61
2020/12/26 06:40:39;;;;;;;9.63;5.30;;;;;;;;;;5023098;28;20467;-61
2020/12/26 06:43:04;;;;;;;5.90;4.40;;;;;;;;;;5039680;28;20472;-60
2020/12/26 06:45:33;;;;;;;7.07;5.10;;;;;;;;;;5023171;28;20908;-61
2020/12/26 06:47:59;;;;;;;10.37;5.80;;;;;;;;;;5022967;28;20226;-61
2020/12/26 06:50:29;;;;;;;7.17;5.37;;;;;;;;;;5039471;28;20457;-61
2020/12/26 06:52:54;;;;;;;7.60;6.10;;;;;;;;;;5023775;28;20226;-61
2020/12/26 06:55:42;;;;;;;6.73;5.73;;;;;;;;;;5023725;28;20466;-61
2020/12/26 06:58:11;;;;;;;12.83;6.00;;;;;;;;;;5022969;28;20604;-61
2020/12/26 07:00:37;;;;;;;9.20;6.73;;;;;;;;;;5023662;28;20470;-61
2020/12/26 07:03:19;;;;;;;10.03;7.30;;;;;;;;;;5023464;28;20452;-61
2020/12/26 07:05:45;;;;;;;7.83;6.10;;;;;;;;;;5023185;28;20220;-61
2020/12/26 07:08:23;;;;;;;12.60;8.37;;;;;;;;;;5023322;28;20454;-60
2020/12/26 07:10:48;;;;;;;11.47;7.10;;;;;;;;;;5022647;28;20523;-61
2020/12/26 07:13:42;;;;;;;9.93;6.77;;;;;;;;;;5022722;28;20930;-61
2020/12/26 07:16:37;;;;;;;15.93;7.27;;;;;;;;;;5021908;28;20298;-61
2020/12/26 07:19:24;;;;;;;9.70;6.87;;;;;;;;;;5031620;28;20471;-61
2020/12/26 07:21:50;;;;;;;7.13;6.40;;;;;;;;;;5041767;28;20514;-60
2020/12/26 07:24:16;;;;;;;9.57;6.97;;;;;;;;;;5041924;28;20445;-61
2020/12/26 07:26:41;;;;;;;9.90;7.07;;;;;;;;;;5042000;28;20492;-61
2020/12/26 07:29:10;;;;;;;11.00;7.80;;;;;;;;;;5041164;28;20549;-61
2020/12/26 07:31:47;;;;;;;12.07;9.37;;;;;;;;;;5043341;28;20220;-61
2020/12/26 07:34:35;;;;;;;11.33;8.70;;;;;;;;;;5041581;28;20461;-61
2020/12/26 07:37:00;;;;;;;10.70;8.70;;;;;;;;;;5043057;28;20457;-61
2020/12/26 07:39:25;;;;;;;10.33;8.87;;;;;;;;;;5042463;28;20779;-61
2020/12/26 07:41:52;;;;;;;12.90;8.70;;;;;;;;;;5041633;28;20233;-61
2020/12/26 07:44:18;;;;;;;16.17;9.63;;;;;;;;;;5042129;28;20221;-61
2020/12/26 07:46:43;;;;;;;10.90;9.13;;;;;;;;;;5042545;28;20459;-61
2020/12/26 07:49:13;;;;;;;12.93;9.10;;;;;;;;;;5041361;28;20221;-60
2020/12/26 07:51:38;;;;;;;15.30;9.37;;;;;;;;;;5042239;28;20613;-61
2020/12/26 07:54:04;;;;;;;15.77;8.77;;;;;;;;;;5042370;28;20453;-61
2020/12/26 07:56:30;;;;;;;18.80;10.07;;;;;;;;;;5042344;28;20220;-61
2020/12/26 07:58:55;;;;;;;11.77;9.20;;;;;;;;;;5042243;28;20507;-60
2020/12/26 08:01:26;;;;;;;15.67;9.53;;;;;;;;;;5041725;28;20610;-60
2020/12/26 08:03:59;;;;;;;15.87;11.40;;;;;;;;;;5041508;28;20293;-60
2020/12/26 08:06:24;;;;;;;15.77;11.30;;;;;;;;;;5041074;28;20450;-60
2020/12/26 08:08:51;;;;;;;18.97;11.77;;;;;;;;;;5042170;28;20258;-60
2020/12/26 08:11:24;;;;;;;17.23;10.77;;;;;;;;;;5042899;28;20298;-60
2020/12/26 08:13:59;;;;;;;14.63;10.40;;;;;;;;;;5042776;28;20457;-62
2020/12/26 08:16:25;;;;;;;17.02;10.90;;;;;;;;;;5041427;28;20519;-61
2020/12/26 08:18:50;;;;;;;19.97;11.70;;;;;;;;;;5035015;28;20217;-61
2020/12/26 08:21:22;;;;;;;17.53;11.63;;;;;;;;;;5042669;28;20221;-61
2020/12/26 08:24:02;;;;;;;15.60;9.50;;;;;;;;;;5042977;28;20229;-61
2020/12/26 08:26:29;;;;;;;18.53;11.57;;;;;;;;;;5042772;28;20458;-61
2020/12/26 08:28:58;;;;;;;18.30;12.03;;;;;;;;;;5041729;28;20450;-60
2020/12/26 08:31:23;;;;;;;12.90;9.38;;;;;;;;;;5041872;28;20456;-61
2020/12/26 08:34:00;;;;;;;19.30;10.80;;;;;;;;;;5040532;28;20289;-61
2020/12/26 08:36:28;;;;;;;15.93;10.90;;;;;;;;;;5039784;28;20209;-61
2020/12/26 08:38:58;;;;;;;18.33;10.80;;;;;;;;;;5040381;28;20757;-61
2020/12/26 08:41:24;;;;;;;13.90;10.00;;;;;;;;;;5040472;28;20601;-61
2020/12/26 08:43:49;;;;;;;16.40;10.13;;;;;;;;;;5040372;28;20462;-61
2020/12/26 08:46:17;;;;;;;15.57;10.53;;;;;;;;;;5041330;28;20536;-61
2020/12/26 08:48:43;;;;;;;15.80;10.77;;;;;;;;;;5040097;28;20212;-61
2020/12/26 08:51:27;;;;;;;19.60;12.20;;;;;;;;;;5040133;28;20467;-61
2020/12/26 08:53:56;;;;;;;19.97;11.70;;;;;;;;;;5040524;28;20228;-61
2020/12/26 08:56:35;;;;;;;22.47;12.77;;;;;;;;;;5040669;28;20457;-61
2020/12/26 08:59:00;;;;;;;14.60;11.27;;;;;;;;;;5039970;28;20497;-61
2020/12/26 09:01:26;;;;;;;14.57;10.53;;;;;;;;;;5040435;28;20462;-62
2020/12/26 09:03:51;;;;;;;19.70;11.20;;;;;;;;;;5040846;28;20276;-61
2020/12/26 09:06:17;;;;;;;17.60;10.40;;;;;;;;;;5041285;28;20220;-61
2020/12/26 09:08:42;;;;;;;22.80;14.10;;;;;;;;;;5040314;28;20229;-61
2020/12/26 09:11:10;;;;;;;17.50;12.60;;;;;;;;;;5056121;28;20222;-61
2020/12/26 09:13:37;;;;;;;15.63;10.77;;;;;;;;;;5055869;28;20226;-61
2020/12/26 09:16:05;;;;;;;14.27;10.87;;;;;;;;;;5039864;28;20988;-60
2020/12/26 09:18:36;;;;;;;17.70;12.77;;;;;;;;;;5047738;28;20472;-60
2020/12/26 09:21:01;;;;;;;20.13;12.00;;;;;;;;;;5060104;28;20461;-60
2020/12/26 09:23:35;;;;;;;19.03;11.53;;;;;;;;;;5061478;28;20486;-60
2020/12/26 09:26:20;;;;;;;20.23;12.40;;;;;;;;;;5061286;28;20255;-61
2020/12/26 09:28:52;;;;;;;18.50;11.93;;;;;;;;;;5060198;28;20842;-61
2020/12/26 09:31:23;;;;;;;18.37;13.70;;;;;;;;;;5060564;28;20924;-61
2020/12/26 09:33:48;;;;;;;18.20;12.63;;;;;;;;;;5060349;28;20475;-61
2020/12/26 09:36:16;;;;;;;20.27;12.40;;;;;;;;;;5061137;28;20844;-61
2020/12/26 09:38:41;;;;;;;17.30;11.43;;;;;;;;;;5059438;28;20287;-61
2020/12/26 09:41:15;;;;;;;18.30;11.60;;;;;;;;;;5058864;28;20461;-61
2020/12/26 09:43:41;;;;;;;15.80;11.53;;;;;;;;;;5060257;28;20224;-61
2020/12/26 09:46:07;;;;;;;19.70;11.00;;;;;;;;;;5061029;28;20460;-61
2020/12/26 09:48:32;;;;;;;15.27;11.53;;;;;;;;;;5060712;28;20513;-61
2020/12/26 09:50:58;;;;;;;16.17;12.57;;;;;;;;;;5060209;28;20310;-61
2020/12/26 09:53:23;;;;;;;17.07;11.90;;;;;;;;;;5061170;28;20220;-61
2020/12/26 09:55:48;;;;;;;18.00;13.30;;;;;;;;;;5060651;28;20237;-61
2020/12/26 09:58:14;;;;;;;17.23;11.93;;;;;;;;;;5061136;28;20651;-61
2020/12/26 10:00:39;;;;;;;19.10;11.63;;;;;;;;;;5059898;28;20247;-62
2020/12/26 10:03:04;;;;;;;21.17;13.27;;;;;;;;;;5059537;28;20299;-61
2020/12/26 10:05:29;;;;;;;13.90;11.10;;;;;;;;;;5063082;28;20668;-61
2020/12/26 10:07:55;;;;;;;16.07;12.43;;;;;;;;;;5063369;28;20224;-60
2020/12/26 10:10:20;;;;;;;15.80;10.97;;;;;;;;;;5063579;28;20276;-61
2020/12/26 10:12:45;;;;;;;15.80;11.70;;;;;;;;;;5063700;28;20216;-61
2020/12/26 10:15:10;;;;;;;15.87;11.50;;;;;;;;;;5064276;28;20535;-61
2020/12/26 10:17:36;;;;;;;13.60;10.43;;;;;;;;;;5063656;28;20329;-60
2020/12/26 10:20:01;;;;;;;21.67;11.10;;;;;;;;;;5043459;28;20309;-61
2020/12/26 10:22:26;;;;;;;19.80;11.53;;;;;;;;;;5044089;28;20226;-62
2020/12/26 10:24:51;;;;;;;20.03;11.67;;;;;;;;;;5043543;28;20214;-61
2020/12/26 10:27:17;;;;;;;20.37;11.80;;;;;;;;;;5044811;28;20225;-61
2020/12/26 10:29:42;;;;;;;13.80;10.17;;;;;;;;;;5044541;28;20215;-62
2020/12/26 10:32:07;;;;;;;12.03;9.70;;;;;;;;;;5044252;28;20620;-62
2020/12/26 10:34:33;;;;;;;16.33;10.43;;;;;;;;;;5043989;28;20219;-62
2020/12/26 10:36:58;;;;;;;27.50;16.47;;;;;;;;;;5042988;28;20219;-61
2020/12/26 10:39:23;;;;;;;13.37;11.90;;;;;;;;;;5042562;28;20664;-62
2020/12/26 10:41:49;;;;;;;23.13;17.47;;;;;;;;;;5041488;28;20220;-62
2020/12/26 10:44:14;;;;;;;60.83;42.77;;;;;;;;;;5042085;28;20641;-61
2020/12/26 10:46:41;;;;;;;36.40;25.43;;;;;;;;;;5042795;28;20261;-61
2020/12/26 10:49:06;;;;;;;20.97;13.33;;;;;;;;;;5041956;28;20232;-61
2020/12/26 10:51:31;;;;;;;17.57;12.57;;;;;;;;;;5042189;28;20470;-60
2020/12/26 10:53:56;;;;;;;20.10;14.20;;;;;;;;;;5042135;28;20231;-61
2020/12/26 10:56:22;;;;;;;30.40;20.60;;;;;;;;;;5042089;28;20229;-61
2020/12/26 10:58:47;;;;;;;20.20;12.10;;;;;;;;;;5040881;28;20219;-61
2020/12/26 11:01:12;;;;;;;19.00;11.50;;;;;;;;;;5041224;28;20316;-61
2020/12/26 11:03:37;;;;;;;18.17;12.87;;;;;;;;;;5041756;28;20224;-61
2020/12/26 11:06:03;;;;;;;17.10;12.07;;;;;;;;;;5040728;28;20688;-61
2020/12/26 11:08:28;;;;;;;15.60;10.80;;;;;;;;;;5041109;28;20212;-62
2020/12/26 11:10:53;;;;;;;22.50;12.63;;;;;;;;;;5040189;28;20254;-60
2020/12/26 11:13:19;;;;;;;17.07;11.67;;;;;;;;;;5042091;28;20247;-61
2020/12/26 11:15:44;;;;;;;17.60;12.73;;;;;;;;;;5041438;28;20212;-61
2020/12/26 11:18:09;;;;;;;22.23;13.87;;;;;;;;;;5045145;28;20226;-61
2020/12/26 11:20:34;;;;;;;16.47;13.43;;;;;;;;;;5061408;28;20316;-61
2020/12/26 11:23:00;;;;;;;23.77;12.50;;;;;;;;;;5060766;28;20543;-61
2020/12/26 11:25:25;;;;;;;16.03;13.63;;;;;;;;;;5061461;28;20241;-61
2020/12/26 11:27:50;;;;;;;20.30;13.33;;;;;;;;;;5060620;28;20247;-61
2020/12/26 11:30:15;;;;;;;14.70;11.40;;;;;;;;;;5060540;28;20219;-61
2020/12/26 11:32:41;;;;;;;20.60;12.37;;;;;;;;;;5060542;28;20220;-61
2020/12/26 11:35:06;;;;;;;17.53;12.90;;;;;;;;;;5045918;28;20576;-61
2020/12/26 11:37:31;;;;;;;16.73;11.43;;;;;;;;;;5040374;28;20228;-61
2020/12/26 11:39:57;;;;;;;15.90;10.73;;;;;;;;;;5039921;28;20570;-62
2020/12/26 11:42:22;;;;;;;16.67;10.53;;;;;;;;;;5043402;28;20311;-61
2020/12/26 11:44:47;;;;;;;14.03;10.90;;;;;;;;;;5059697;28;20235;-61
2020/12/26 11:47:12;;;;;;;17.60;10.90;;;;;;;;;;5059929;28;20620;-61
2020/12/26 11:49:38;;;;;;;16.00;11.33;;;;;;;;;;5059532;28;20278;-61
2020/12/26 11:52:03;;;;;;;20.13;11.10;;;;;;;;;;5059248;28;20312;-61
2020/12/26 11:54:28;;;;;;;13.33;9.30;;;;;;;;;;5059776;28;20275;-61
2020/12/26 11:56:54;;;;;;;14.23;10.20;;;;;;;;;;5059525;28;20684;-61
2020/12/26 11:59:20;;;;;;;10.40;8.93;;;;;;;;;;5051077;28;20256;-61
2020/12/26 12:01:45;;;;;;;11.07;9.73;;;;;;;;;;5055115;28;20232;-63
2020/12/26 12:04:11;;;;;;;10.37;8.70;;;;;;;;;;5040312;28;20459;-62
2020/12/26 12:06:36;;;;;;;11.00;8.40;;;;;;;;;;5042528;28;20205;-61
2020/12/26 12:09:02;;;;;;;10.07;7.67;;;;;;;;;;5057309;28;20224;-62
2020/12/26 12:11:27;;;;;;;9.60;8.27;;;;;;;;;;5058760;28;20220;-61
2020/12/26 12:13:53;;;;;;;8.83;7.93;;;;;;;;;;5058290;28;20216;-61
2020/12/26 12:16:19;;;;;;;10.00;8.00;;;;;;;;;;5057860;28;20217;-61
2020/12/26 12:18:44;;;;;;;8.40;6.60;;;;;;;;;;5057728;28;20315;-61
2020/12/26 12:21:09;;;;;;;11.50;8.57;;;;;;;;;;5057623;28;20506;-60
2020/12/26 12:23:34;;;;;;;9.17;7.80;;;;;;;;;;5058830;28;20221;-62
2020/12/26 12:26:00;;;;;;;8.97;6.57;;;;;;;;;;5056888;28;20700;-62
2020/12/26 12:28:25;;;;;;;10.43;7.93;;;;;;;;;;5058674;28;20209;-61
2020/12/26 12:30:50;;;;;;;9.10;7.03;;;;;;;;;;5058203;28;20221;-61
2020/12/26 12:33:16;;;;;;;10.40;6.67;;;;;;;;;;5058376;28;20213;-61
2020/12/26 12:35:41;;;;;;;12.33;6.80;;;;;;;;;;5057099;28;20206;-61
2020/12/26 12:38:06;;;;;;;9.77;8.00;;;;;;;;;;5058006;28;20221;-61
2020/12/26 12:40:32;;;;;;;8.37;6.53;;;;;;;;;;5058668;28;20221;-61
2020/12/26 12:42:57;;;;;;;11.03;6.70;;;;;;;;;;5058133;28;20307;-61
2020/12/26 12:45:22;;;;;;;10.93;6.50;;;;;;;;;;5058064;28;20209;-61
2020/12/26 12:47:48;;;;;;;8.93;7.30;;;;;;;;;;5057937;28;20220;-62
2020/12/26 12:50:13;;;;;;;8.10;6.53;;;;;;;;;;5058257;28;20221;-61
2020/12/26 12:52:38;;;;;;;7.70;7.00;;;;;;;;;;5057940;28;20228;-62
2020/12/26 12:55:04;;;;;;;7.27;6.43;;;;;;;;;;5057552;28;20232;-61
2020/12/26 12:57:29;;;;;;;8.47;6.77;;;;;;;;;;5058150;28;20217;-61
2020/12/26 12:59:55;;;;;;;9.30;6.63;;;;;;;;;;5057318;28;20667;-60
2020/12/26 13:02:20;;;;;;;7.63;6.77;;;;;;;;;;5057877;28;20229;-61
2020/12/26 13:04:45;;;;;;;8.43;6.80;;;;;;;;;;5057710;28;20223;-61
2020/12/26 13:07:10;;;;;;;14.77;7.77;;;;;;;;;;5056812;28;20624;-61
2020/12/26 13:09:36;;;;;;;9.63;7.63;;;;;;;;;;5057665;28;20212;-61
2020/12/26 13:12:01;;;;;;;9.40;6.13;;;;;;;;;;5057632;28;20661;-61
2020/12/26 13:14:26;;;;;;;7.77;7.03;;;;;;;;;;5057967;28;20224;-61
2020/12/26 13:16:54;;;;;;;12.03;6.93;;;;;;;;;;5057161;28;20563;-61
2020/12/26 13:19:20;;;;;;;9.40;7.30;;;;;;;;;;5057333;28;20266;-61
2020/12/26 13:21:45;;;;;;;10.30;7.13;;;;;;;;;;5057707;28;20819;-61
2020/12/26 13:24:10;;;;;;;10.63;6.90;;;;;;;;;;5056901;28;20217;-61
2020/12/26 13:26:36;;;;;;;8.77;6.80;;;;;;;;;;5057794;28;20302;-61
2020/12/26 13:29:02;;;;;;;8.67;7.50;;;;;;;;;;5057250;28;20212;-61
2020/12/26 13:31:28;;;;;;;14.23;7.43;;;;;;;;;;5057616;28;20954;-61
2020/12/26 13:33:54;;;;;;;8.63;6.70;;;;;;;;;;5057150;28;20205;-61
2020/12/26 13:36:19;;;;;;;8.40;7.47;;;;;;;;;;5056544;28;20456;-62
2020/12/26 13:38:44;;;;;;;8.13;6.63;;;;;;;;;;5056766;28;20214;-61
2020/12/26 13:41:10;;;;;;;7.43;6.20;;;;;;;;;;5056950;28;20232;-61
2020/12/26 13:43:35;;;;;;;10.60;8.20;;;;;;;;;;5057449;28;20221;-61
2020/12/26 13:46:01;;;;;;;11.30;6.40;;;;;;;;;;5057142;28;20509;-61
2020/12/26 13:48:26;;;;;;;8.20;7.40;;;;;;;;;;5057543;28;20645;-61
2020/12/26 13:50:51;;;;;;;9.67;6.90;;;;;;;;;;5057381;28;20220;-62
2020/12/26 13:53:17;;;;;;;8.67;7.23;;;;;;;;;;5057368;28;20216;-62
2020/12/26 13:55:42;;;;;;;7.60;6.80;;;;;;;;;;5057153;28;20640;-61
2020/12/26 13:58:07;;;;;;;10.40;6.90;;;;;;;;;;5057312;28;20303;-62
2020/12/26 14:00:32;;;;;;;7.70;6.80;;;;;;;;;;5057013;28;20225;-62
2020/12/26 14:02:58;;;;;;;9.13;6.60;;;;;;;;;;5056698;28;20236;-62
2020/12/26 14:05:23;;;;;;;8.57;6.60;;;;;;;;;;5056935;28;20214;-62
2020/12/26 14:07:48;;;;;;;9.17;7.43;;;;;;;;;;5056512;28;20667;-62
2020/12/26 14:10:13;;;;;;;7.10;6.33;;;;;;;;;;5056509;28;20209;-62
2020/12/26 14:12:39;;;;;;;9.60;8.27;;;;;;;;;;5057218;28;20245;-62
2020/12/26 14:15:05;;;;;;;9.60;6.90;;;;;;;;;;5056433;28;20223;-61
2020/12/26 14:17:30;;;;;;;12.10;7.13;;;;;;;;;;5056760;28;20510;-62
2020/12/26 14:19:55;;;;;;;8.13;7.07;;;;;;;;;;5056306;28;20225;-62
2020/12/26 14:22:21;;;;;;;9.63;7.10;;;;;;;;;;5056653;28;20220;-62
2020/12/26 14:24:46;;;;;;;10.20;6.50;;;;;;;;;;5057443;28;20301;-61
2020/12/26 14:27:11;;;;;;;10.20;6.70;;;;;;;;;;5056724;28;20213;-62
2020/12/26 14:29:36;;;;;;;7.87;6.70;;;;;;;;;;5057147;28;20305;-61